createdAt,value
2018-01-21T00:00:14.551Z,22.80
2018-01-21T00:00:48.448Z,23.50
2018-01-21T00:01:22.371Z,22.83
2018-01-21T00:01:56.284Z,22.30
2018-01-21T00:02:30.149Z,22.73
2018-01-21T00:03:04.018Z,23.45
2018-01-21T00:03:37.929Z,23.42
2018-01-21T00:04:11.912Z,20.88
2018-01-21T00:04:46.669Z,23.30
2018-01-21T00:05:20.749Z,20.88
2018-01-21T00:05:54.979Z,22.48
2018-01-21T00:06:28.918Z,22.80
2018-01-21T00:07:02.907Z,22.20
2018-01-21T00:07:36.764Z,23.50
2018-01-21T00:08:10.633Z,22.17
2018-01-21T00:08:44.605Z,22.62
2018-01-21T00:09:18.481Z,21.62
2018-01-21T00:09:52.395Z,23.67
2018-01-21T00:10:26.311Z,21.73
2018-01-21T00:11:00.183Z,22.58
2018-01-21T00:11:34.057Z,20.92
2018-01-21T00:12:08.026Z,22.17
2018-01-21T00:12:41.897Z,22.60
2018-01-21T00:13:15.836Z,22.20
2018-01-21T00:13:49.803Z,21.15
2018-01-21T00:14:23.796Z,21.83
2018-01-21T00:14:57.880Z,23.38
2018-01-21T00:15:31.816Z,22.15
2018-01-21T00:16:05.780Z,22.13
2018-01-21T00:16:39.678Z,20.98
2018-01-21T00:17:13.601Z,23.83
2018-01-21T00:17:47.536Z,22.60
2018-01-21T00:18:21.426Z,22.73
2018-01-21T00:18:55.349Z,22.83
2018-01-21T00:19:29.436Z,22.42
2018-01-21T00:20:03.350Z,23.08
2018-01-21T00:20:37.224Z,21.80
2018-01-21T00:21:11.106Z,22.13
2018-01-21T00:21:45.210Z,22.25
2018-01-21T00:22:25.070Z,22.15
2018-01-21T00:22:58.935Z,22.10
2018-01-21T00:23:32.793Z,23.85
2018-01-21T00:24:06.689Z,22.02
2018-01-21T00:24:40.592Z,22.42
2018-01-21T00:25:14.479Z,22.52
2018-01-21T00:25:48.406Z,22.42
2018-01-21T00:26:22.265Z,21.00
2018-01-21T00:26:56.158Z,19.98
2018-01-21T00:27:30.165Z,23.12
2018-01-21T00:28:04.010Z,21.20
2018-01-21T00:28:37.892Z,21.50
2018-01-21T00:29:11.761Z,23.10
2018-01-21T00:29:45.629Z,21.15
2018-01-21T00:30:19.532Z,21.25
2018-01-21T00:30:53.392Z,21.08
2018-01-21T00:31:27.289Z,22.30
2018-01-21T00:32:01.173Z,22.45
2018-01-21T00:32:35.052Z,21.80
2018-01-21T00:33:08.949Z,21.87
2018-01-21T00:33:42.834Z,23.10
2018-01-21T00:34:16.700Z,20.92
2018-01-21T00:34:50.595Z,22.05
2018-01-21T00:35:24.478Z,22.50
2018-01-21T00:35:58.357Z,22.17
2018-01-21T00:36:32.210Z,21.33
2018-01-21T00:37:06.091Z,19.48
2018-01-21T00:37:39.974Z,21.52
2018-01-21T00:38:13.861Z,20.10
2018-01-21T00:38:47.754Z,21.75
2018-01-21T00:39:21.632Z,21.02
2018-01-21T00:39:55.513Z,21.48
2018-01-21T00:40:29.607Z,23.02
2018-01-21T00:41:03.496Z,22.27
2018-01-21T00:41:37.495Z,21.30
2018-01-21T00:42:11.388Z,22.23
2018-01-21T00:42:45.257Z,22.48
2018-01-21T00:43:19.142Z,20.80
2018-01-21T00:43:53.045Z,21.90
2018-01-21T00:44:26.962Z,21.08
2018-01-21T00:45:00.855Z,21.23
2018-01-21T00:45:34.726Z,20.70
2018-01-21T00:46:08.667Z,23.00
2018-01-21T00:46:42.574Z,22.05
2018-01-21T00:47:16.720Z,22.35
2018-01-21T00:47:50.618Z,21.73
2018-01-21T00:48:24.483Z,21.25
2018-01-21T00:48:58.367Z,21.95
2018-01-21T00:49:32.230Z,21.98
2018-01-21T00:50:06.087Z,22.40
2018-01-21T00:50:39.987Z,21.90
2018-01-21T00:51:13.906Z,20.80
2018-01-21T00:51:47.792Z,22.92
2018-01-21T00:52:21.669Z,23.90
2018-01-21T00:52:55.562Z,22.33
2018-01-21T00:53:29.431Z,21.60
2018-01-21T00:54:03.304Z,27.62
2018-01-21T00:54:37.177Z,22.25
2018-01-21T00:55:11.073Z,22.40
2018-01-21T00:55:44.951Z,21.55
2018-01-21T00:56:18.854Z,22.73
2018-01-21T00:56:52.726Z,20.80
2018-01-21T00:57:26.626Z,20.65
2018-01-21T00:58:00.499Z,21.10
2018-01-21T00:58:34.378Z,21.48
2018-01-21T00:59:08.255Z,20.42
2018-01-21T00:59:42.146Z,22.50
2018-01-21T01:00:16.041Z,20.83
2018-01-21T01:00:49.928Z,22.37
2018-01-21T01:01:23.793Z,22.65
2018-01-21T01:01:57.674Z,22.35
2018-01-21T01:02:31.588Z,20.37
2018-01-21T01:03:05.457Z,20.80
2018-01-21T01:03:39.330Z,19.75
2018-01-21T01:04:13.204Z,22.20
2018-01-21T01:04:47.156Z,21.15
2018-01-21T01:05:21.089Z,21.35
2018-01-21T01:05:54.961Z,21.12
2018-01-21T01:06:28.829Z,22.20
2018-01-21T01:07:02.724Z,22.33
2018-01-21T01:07:36.621Z,21.90
2018-01-21T01:08:10.559Z,20.90
2018-01-21T01:08:44.423Z,22.30
2018-01-21T01:09:18.346Z,20.98
2018-01-21T01:09:52.241Z,23.20
2018-01-21T01:10:26.144Z,23.35
2018-01-21T01:11:00.034Z,22.42
2018-01-21T01:11:33.904Z,21.90
2018-01-21T01:12:07.751Z,24.05
2018-01-21T01:12:41.646Z,23.92
2018-01-21T01:13:15.533Z,22.85
2018-01-21T01:13:49.429Z,21.67
2018-01-21T01:14:23.351Z,21.33
2018-01-21T01:14:57.265Z,21.48
2018-01-21T01:15:31.182Z,20.12
2018-01-21T01:16:05.042Z,22.90
2018-01-21T01:16:38.948Z,20.88
2018-01-21T01:17:12.822Z,22.27
2018-01-21T01:17:46.997Z,22.25
2018-01-21T01:18:20.920Z,20.98
2018-01-21T01:18:54.768Z,22.35
2018-01-21T01:19:28.775Z,20.75
2018-01-21T01:20:02.656Z,21.62
2018-01-21T01:20:36.514Z,20.62
2018-01-21T01:21:10.400Z,20.48
2018-01-21T01:21:44.473Z,20.95
2018-01-21T01:22:18.405Z,21.45
2018-01-21T01:22:52.597Z,22.23
2018-01-21T01:23:26.503Z,24.00
2018-01-21T01:24:00.436Z,22.40
2018-01-21T01:24:34.379Z,28.85
2018-01-21T01:25:08.379Z,22.20
2018-01-21T01:25:42.256Z,28.45
2018-01-21T01:26:16.111Z,30.37
2018-01-21T01:26:49.993Z,21.42
2018-01-21T01:27:23.873Z,20.88
2018-01-21T01:27:57.937Z,21.08
2018-01-21T01:28:31.908Z,22.05
2018-01-21T01:29:05.817Z,21.92
2018-01-21T01:29:39.690Z,20.33
2018-01-21T01:30:13.594Z,22.15
2018-01-21T01:30:47.538Z,21.65
2018-01-21T01:31:21.474Z,21.10
2018-01-21T01:31:55.441Z,22.20
2018-01-21T01:32:32.456Z,19.73
2018-01-21T01:33:06.595Z,20.58
2018-01-21T01:33:40.513Z,24.67
2018-01-21T01:34:14.549Z,20.80
2018-01-21T01:34:48.438Z,20.95
2018-01-21T01:35:22.381Z,21.20
2018-01-21T01:35:56.264Z,21.70
2018-01-21T01:36:30.151Z,20.48
2018-01-21T01:37:04.120Z,21.23
2018-01-21T01:37:38.182Z,21.60
2018-01-21T01:38:12.108Z,20.50
2018-01-21T01:38:46.047Z,23.17
2018-01-21T01:39:19.952Z,24.90
2018-01-21T01:39:54.155Z,21.45
2018-01-21T01:40:28.392Z,20.30
2018-01-21T01:41:02.361Z,21.87
2018-01-21T01:41:36.292Z,21.15
2018-01-21T01:42:10.251Z,21.17
2018-01-21T01:42:44.144Z,20.08
2018-01-21T01:43:18.701Z,22.02
2018-01-21T01:43:53.448Z,21.90
2018-01-21T01:44:27.349Z,21.90
2018-01-21T01:45:01.414Z,21.80
2018-01-21T01:45:35.299Z,20.20
2018-01-21T01:46:09.460Z,20.40
2018-01-21T01:46:43.357Z,21.20
2018-01-21T01:47:17.240Z,20.02
2018-01-21T01:47:51.201Z,19.50
2018-01-21T01:48:25.139Z,21.00
2018-01-21T01:48:59.139Z,20.27
2018-01-21T01:49:33.024Z,22.65
2018-01-21T01:50:07.156Z,21.67
2018-01-21T01:50:41.144Z,21.83
2018-01-21T01:51:15.025Z,19.65
2018-01-21T01:51:49.128Z,21.00
2018-01-21T01:52:22.993Z,20.23
2018-01-21T01:52:56.908Z,20.77
2018-01-21T01:53:30.905Z,21.67
2018-01-21T01:54:04.759Z,20.55
2018-01-21T01:54:38.742Z,21.55
2018-01-21T01:55:12.665Z,22.37
2018-01-21T01:55:46.671Z,22.30
2018-01-21T01:56:20.540Z,21.60
2018-01-21T01:56:54.422Z,22.45
2018-01-21T01:57:28.383Z,20.45
2018-01-21T01:58:02.290Z,21.73
2018-01-21T01:58:36.223Z,20.27
2018-01-21T01:59:10.133Z,21.85
2018-01-21T01:59:43.989Z,20.23
2018-01-21T02:00:17.944Z,22.05
2018-01-21T02:00:51.803Z,23.55
2018-01-21T02:01:25.688Z,21.00
2018-01-21T02:01:59.589Z,22.00
2018-01-21T02:02:33.472Z,20.23
2018-01-21T02:03:07.511Z,22.23
2018-01-21T02:03:41.432Z,22.40
2018-01-21T02:04:15.311Z,21.15
2018-01-21T02:04:49.206Z,22.10
2018-01-21T02:05:23.153Z,20.80
2018-01-21T02:05:57.034Z,21.67
2018-01-21T02:06:30.906Z,22.33
2018-01-21T02:07:04.776Z,21.30
2018-01-21T02:07:38.975Z,21.90
2018-01-21T02:08:13.123Z,21.80
2018-01-21T02:08:47.029Z,22.00
2018-01-21T02:09:20.952Z,22.13
2018-01-21T02:09:54.877Z,22.50
2018-01-21T02:10:28.776Z,22.92
2018-01-21T02:11:02.622Z,20.60
2018-01-21T02:11:36.500Z,22.10
2018-01-21T02:12:10.412Z,20.60
2018-01-21T02:12:44.348Z,23.90
2018-01-21T02:13:18.246Z,25.17
2018-01-21T02:13:52.193Z,22.85
2018-01-21T02:14:26.081Z,23.38
2018-01-21T02:14:59.945Z,22.50
2018-01-21T02:15:33.810Z,22.20
2018-01-21T02:16:07.668Z,22.45
2018-01-21T02:16:42.980Z,23.75
2018-01-21T02:17:16.895Z,21.48
2018-01-21T02:17:50.814Z,21.52
2018-01-21T02:18:24.681Z,22.10
2018-01-21T02:18:58.608Z,23.25
2018-01-21T02:19:32.487Z,22.73
2018-01-21T02:20:06.367Z,27.25
2018-01-21T02:20:40.211Z,26.50
2018-01-21T02:21:14.075Z,22.75
2018-01-21T02:21:47.965Z,21.83
2018-01-21T02:22:21.899Z,21.52
2018-01-21T02:22:55.776Z,22.65
2018-01-21T02:23:29.684Z,22.70
2018-01-21T02:24:03.574Z,21.65
2018-01-21T02:24:37.494Z,21.95
2018-01-21T02:25:11.396Z,22.35
2018-01-21T02:25:45.291Z,22.37
2018-01-21T02:26:19.208Z,21.73
2018-01-21T02:26:53.136Z,21.52
2018-01-21T02:27:27.136Z,21.87
2018-01-21T02:28:01.026Z,22.27
2018-01-21T02:28:34.900Z,20.88
2018-01-21T02:29:08.811Z,22.00
2018-01-21T02:29:42.724Z,20.73
2018-01-21T02:30:16.723Z,21.35
2018-01-21T02:30:50.668Z,23.27
2018-01-21T02:31:25.263Z,22.30
2018-01-21T02:31:59.224Z,22.08
2018-01-21T02:32:33.294Z,22.05
2018-01-21T02:33:07.485Z,21.83
2018-01-21T02:33:42.380Z,23.95
2018-01-21T02:34:16.283Z,21.15
2018-01-21T02:34:50.167Z,22.55
2018-01-21T02:35:24.063Z,22.37
2018-01-21T02:35:58.049Z,21.85
2018-01-21T02:36:31.915Z,21.80
2018-01-21T02:37:05.777Z,22.35
2018-01-21T02:37:39.643Z,22.67
2018-01-21T02:38:13.514Z,23.85
2018-01-21T02:38:47.379Z,22.05
2018-01-21T02:39:21.307Z,22.67
2018-01-21T02:39:55.178Z,23.60
2018-01-21T02:40:29.111Z,21.98
2018-01-21T02:41:02.981Z,22.67
2018-01-21T02:41:36.949Z,22.92
2018-01-21T02:42:10.796Z,24.05
2018-01-21T02:42:44.842Z,21.27
2018-01-21T02:43:18.898Z,22.73
2018-01-21T02:43:52.773Z,21.75
2018-01-21T02:44:26.677Z,22.85
2018-01-21T02:45:00.589Z,21.58
2018-01-21T02:45:34.480Z,22.62
2018-01-21T02:46:08.419Z,22.30
2018-01-21T02:46:42.515Z,22.15
2018-01-21T02:47:16.384Z,21.45
2018-01-21T02:47:50.252Z,23.02
2018-01-21T02:48:24.158Z,21.35
2018-01-21T02:48:58.004Z,23.67
2018-01-21T02:49:31.885Z,22.02
2018-01-21T02:50:05.800Z,22.15
2018-01-21T02:50:39.665Z,24.45
2018-01-21T02:51:13.540Z,22.52
2018-01-21T02:51:47.414Z,21.67
2018-01-21T02:52:21.297Z,23.20
2018-01-21T02:52:55.164Z,20.67
2018-01-21T02:53:29.015Z,22.77
2018-01-21T02:54:02.953Z,24.75
2018-01-21T02:54:36.907Z,24.45
2018-01-21T02:55:10.779Z,23.20
2018-01-21T02:55:44.647Z,22.92
2018-01-21T02:56:18.594Z,23.33
2018-01-21T02:56:52.546Z,23.98
2018-01-21T02:57:26.465Z,25.20
2018-01-21T02:58:00.364Z,25.55
2018-01-21T02:58:34.249Z,24.73
2018-01-21T02:59:08.107Z,24.00
2018-01-21T02:59:41.998Z,25.40
2018-01-21T03:00:15.958Z,23.45
2018-01-21T03:00:49.829Z,24.15
2018-01-21T03:01:23.739Z,23.65
2018-01-21T03:01:57.635Z,23.35
2018-01-21T03:02:31.559Z,23.80
2018-01-21T03:03:05.434Z,24.08
2018-01-21T03:03:39.320Z,25.60
2018-01-21T03:04:13.264Z,24.75
2018-01-21T03:04:47.147Z,23.60
2018-01-21T03:05:21.072Z,27.20
2018-01-21T03:05:54.953Z,24.83
2018-01-21T03:06:28.812Z,24.90
2018-01-21T03:07:02.772Z,24.58
2018-01-21T03:07:36.629Z,23.98
2018-01-21T03:08:10.506Z,25.33
2018-01-21T03:08:44.405Z,25.30
2018-01-21T03:09:18.312Z,25.42
2018-01-21T03:09:52.245Z,24.83
2018-01-21T03:10:26.203Z,23.75
2018-01-21T03:11:00.100Z,24.33
2018-01-21T03:11:33.996Z,25.45
2018-01-21T03:12:07.877Z,26.73
2018-01-21T03:12:41.765Z,26.80
2018-01-21T03:13:15.633Z,26.70
2018-01-21T03:13:49.602Z,26.17
2018-01-21T03:14:23.529Z,24.87
2018-01-21T03:14:57.704Z,26.75
2018-01-21T03:15:31.565Z,27.15
2018-01-21T03:16:05.422Z,27.27
2018-01-21T03:16:39.305Z,25.62
2018-01-21T03:17:13.164Z,25.67
2018-01-21T03:17:47.029Z,26.52
2018-01-21T03:18:20.918Z,27.35
2018-01-21T03:18:54.799Z,25.27
2018-01-21T03:19:28.678Z,26.40
2018-01-21T03:20:02.537Z,26.65
2018-01-21T03:20:36.412Z,26.02
2018-01-21T03:21:10.286Z,26.17
2018-01-21T03:21:44.150Z,26.52
2018-01-21T03:22:18.013Z,27.42
2018-01-21T03:22:51.867Z,25.92
2018-01-21T03:23:25.725Z,26.95
2018-01-21T03:23:59.596Z,27.10
2018-01-21T03:24:33.469Z,25.73
2018-01-21T03:25:07.366Z,26.77
2018-01-21T03:25:41.240Z,25.70
2018-01-21T03:26:15.156Z,26.77
2018-01-21T03:26:49.034Z,26.83
2018-01-21T03:27:22.920Z,25.88
2018-01-21T03:27:56.877Z,25.85
2018-01-21T03:28:30.935Z,26.95
2018-01-21T03:29:04.832Z,26.42
2018-01-21T03:29:38.713Z,24.83
2018-01-21T03:30:12.637Z,26.40
2018-01-21T03:30:46.549Z,27.25
2018-01-21T03:31:20.448Z,27.15
2018-01-21T03:31:54.381Z,28.80
2018-01-21T03:32:28.404Z,27.17
2018-01-21T03:33:02.354Z,26.92
2018-01-21T03:33:36.246Z,29.00
2018-01-21T03:34:10.253Z,28.60
2018-01-21T03:34:44.124Z,27.73
2018-01-21T03:35:18.031Z,28.90
2018-01-21T03:35:51.922Z,28.08
2018-01-21T03:36:25.873Z,28.20
2018-01-21T03:36:59.861Z,28.75
2018-01-21T03:37:33.764Z,28.02
2018-01-21T03:38:07.663Z,27.48
2018-01-21T03:38:41.549Z,26.95
2018-01-21T03:39:15.444Z,30.15
2018-01-21T03:39:49.314Z,27.80
2018-01-21T03:40:23.208Z,27.48
2018-01-21T03:40:57.134Z,28.75
2018-01-21T03:41:31.036Z,28.90
2018-01-21T03:42:04.907Z,28.17
2018-01-21T03:42:38.912Z,27.15
2018-01-21T03:43:12.905Z,27.65
2018-01-21T03:43:46.880Z,28.48
2018-01-21T03:44:20.804Z,27.40
2018-01-21T03:44:54.736Z,28.87
2018-01-21T03:45:28.787Z,28.00
2018-01-21T03:46:02.667Z,29.40
2018-01-21T03:46:36.536Z,28.98
2018-01-21T03:47:10.415Z,28.25
2018-01-21T03:47:44.350Z,29.37
2018-01-21T03:48:18.225Z,29.00
2018-01-21T03:48:52.142Z,28.85
2018-01-21T03:49:25.997Z,28.70
2018-01-21T03:49:59.932Z,28.30
2018-01-21T03:50:34.077Z,26.33
2018-01-21T03:51:07.952Z,28.12
2018-01-21T03:51:41.845Z,28.10
2018-01-21T03:52:15.720Z,28.85
2018-01-21T03:52:49.607Z,29.83
2018-01-21T03:53:23.468Z,28.62
2018-01-21T03:53:57.409Z,29.87
2018-01-21T03:54:31.298Z,27.60
2018-01-21T03:55:05.174Z,28.35
2018-01-21T03:55:39.084Z,28.70
2018-01-21T03:56:12.985Z,29.60
2018-01-21T03:56:46.872Z,29.05
2018-01-21T03:57:20.773Z,29.42
2018-01-21T03:57:54.660Z,29.00
2018-01-21T03:58:28.519Z,28.05
2018-01-21T03:59:02.368Z,29.80
2018-01-21T03:59:36.248Z,28.23
2018-01-21T04:00:10.358Z,29.87
2018-01-21T04:00:44.291Z,27.73
2018-01-21T04:01:18.234Z,28.45
2018-01-21T04:01:52.404Z,28.98
2018-01-21T04:02:26.327Z,27.40
2018-01-21T04:03:00.247Z,26.80
2018-01-21T04:03:34.105Z,28.87
2018-01-21T04:04:08.032Z,29.45
2018-01-21T04:04:41.907Z,28.23
2018-01-21T04:05:15.804Z,28.92
2018-01-21T04:05:49.696Z,29.50
2018-01-21T04:06:23.633Z,29.20
2018-01-21T04:06:57.549Z,28.17
2018-01-21T04:07:31.441Z,28.70
2018-01-21T04:08:05.343Z,28.12
2018-01-21T04:08:39.282Z,28.77
2018-01-21T04:09:13.177Z,28.50
2018-01-21T04:09:47.072Z,27.73
2018-01-21T04:10:21.021Z,26.48
2018-01-21T04:10:54.963Z,25.33
2018-01-21T04:11:28.859Z,25.62
2018-01-21T04:12:02.756Z,27.27
2018-01-21T04:12:36.657Z,28.55
2018-01-21T04:13:10.558Z,26.65
2018-01-21T04:13:44.513Z,26.55
2018-01-21T04:14:18.407Z,25.37
2018-01-21T04:14:52.301Z,25.62
2018-01-21T04:15:26.197Z,26.42
2018-01-21T04:16:00.121Z,28.12
2018-01-21T04:16:34.024Z,27.08
2018-01-21T04:17:07.907Z,27.80
2018-01-21T04:17:41.802Z,26.23
2018-01-21T04:18:15.773Z,27.00
2018-01-21T04:18:49.685Z,26.00
2018-01-21T04:19:23.601Z,27.35
2018-01-21T04:19:57.531Z,28.70
2018-01-21T04:20:31.468Z,27.30
2018-01-21T04:21:05.363Z,28.77
2018-01-21T04:21:39.233Z,27.75
2018-01-21T04:22:13.171Z,26.58
2018-01-21T04:22:47.358Z,27.25
2018-01-21T04:23:21.213Z,26.45
2018-01-21T04:23:55.074Z,27.08
2018-01-21T04:24:28.983Z,26.30
2018-01-21T04:25:02.860Z,25.40
2018-01-21T04:25:36.730Z,26.15
2018-01-21T04:26:10.632Z,26.48
2018-01-21T04:26:44.539Z,26.70
2018-01-21T04:27:18.442Z,27.48
2018-01-21T04:27:52.313Z,25.02
2018-01-21T04:28:26.232Z,26.17
2018-01-21T04:29:00.135Z,26.45
2018-01-21T04:29:34.050Z,26.15
2018-01-21T04:30:07.945Z,24.83
2018-01-21T04:30:41.840Z,25.08
2018-01-21T04:31:15.733Z,23.52
2018-01-21T04:31:49.647Z,24.95
2018-01-21T04:32:23.668Z,25.37
2018-01-21T04:32:57.560Z,24.60
2018-01-21T04:33:31.433Z,24.35
2018-01-21T04:34:05.365Z,24.12
2018-01-21T04:34:39.229Z,25.85
2018-01-21T04:35:13.123Z,24.20
2018-01-21T04:35:47.342Z,23.40
2018-01-21T04:36:21.217Z,25.52
2018-01-21T04:36:55.081Z,24.37
2018-01-21T04:37:28.933Z,24.25
2018-01-21T04:38:02.800Z,25.50
2018-01-21T04:38:36.677Z,26.00
2018-01-21T04:39:10.710Z,24.87
2018-01-21T04:39:44.583Z,25.08
2018-01-21T04:40:18.496Z,25.70
2018-01-21T04:40:52.618Z,24.85
2018-01-21T04:41:26.664Z,24.33
2018-01-21T04:42:00.587Z,24.77
2018-01-21T04:42:34.446Z,25.37
2018-01-21T04:43:08.341Z,24.42
2018-01-21T04:43:42.217Z,24.77
2018-01-21T04:44:16.137Z,24.77
2018-01-21T04:44:50.026Z,24.90
2018-01-21T04:45:23.901Z,25.23
2018-01-21T04:45:57.765Z,24.77
2018-01-21T04:46:31.645Z,24.75
2018-01-21T04:47:05.623Z,24.25
2018-01-21T04:47:39.501Z,25.20
2018-01-21T04:48:13.388Z,25.37
2018-01-21T04:48:47.269Z,25.58
2018-01-21T04:49:21.133Z,24.42
2018-01-21T04:49:55.009Z,25.08
2018-01-21T04:50:28.942Z,23.95
2018-01-21T04:51:02.810Z,24.08
2018-01-21T04:51:36.709Z,24.83
2018-01-21T04:52:10.569Z,25.60
2018-01-21T04:52:44.443Z,24.98
2018-01-21T04:53:18.479Z,24.25
2018-01-21T04:53:52.338Z,24.02
2018-01-21T04:54:26.289Z,25.77
2018-01-21T04:55:00.201Z,24.90
2018-01-21T04:55:34.108Z,25.30
2018-01-21T04:56:08.001Z,25.83
2018-01-21T04:56:41.978Z,26.10
2018-01-21T04:57:15.877Z,23.90
2018-01-21T04:57:49.738Z,24.98
2018-01-21T04:58:23.666Z,23.92
2018-01-21T04:58:57.600Z,26.33
2018-01-21T04:59:31.560Z,25.83
2018-01-21T05:00:05.541Z,24.92
2018-01-21T05:00:39.531Z,24.48
2018-01-21T05:01:13.432Z,24.70
2018-01-21T05:01:47.359Z,24.55
2018-01-21T05:02:21.256Z,24.60
2018-01-21T05:02:55.149Z,25.08
2018-01-21T05:03:29.057Z,26.05
2018-01-21T05:04:02.937Z,26.75
2018-01-21T05:04:36.832Z,25.67
2018-01-21T05:05:10.741Z,25.12
2018-01-21T05:05:44.692Z,24.42
2018-01-21T05:06:18.609Z,24.37
2018-01-21T05:06:52.542Z,25.58
2018-01-21T05:07:26.477Z,25.20
2018-01-21T05:08:00.384Z,24.77
2018-01-21T05:08:34.351Z,24.35
2018-01-21T05:09:08.232Z,24.70
2018-01-21T05:09:42.303Z,25.23
2018-01-21T05:10:16.312Z,23.33
2018-01-21T05:10:50.245Z,24.70
2018-01-21T05:11:24.279Z,25.45
2018-01-21T05:11:58.193Z,25.00
2018-01-21T05:12:32.105Z,25.20
2018-01-21T05:13:05.984Z,24.85
2018-01-21T05:13:39.914Z,25.27
2018-01-21T05:14:13.806Z,26.35
2018-01-21T05:14:47.703Z,25.25
2018-01-21T05:15:21.764Z,25.73
2018-01-21T05:15:55.665Z,26.55
2018-01-21T05:16:29.642Z,25.05
2018-01-21T05:17:03.541Z,24.52
2018-01-21T05:17:37.429Z,24.55
2018-01-21T05:18:11.305Z,25.17
2018-01-21T05:18:45.177Z,24.60
2018-01-21T05:19:19.045Z,26.02
2018-01-21T05:19:52.946Z,26.98
2018-01-21T05:20:26.854Z,26.35
2018-01-21T05:21:00.716Z,25.83
2018-01-21T05:21:34.632Z,25.75
2018-01-21T05:22:08.524Z,26.65
2018-01-21T05:22:42.397Z,26.90
2018-01-21T05:23:16.386Z,25.77
2018-01-21T05:23:50.293Z,25.20
2018-01-21T05:24:24.164Z,27.15
2018-01-21T05:24:58.073Z,26.33
2018-01-21T05:25:31.938Z,26.20
2018-01-21T05:26:05.849Z,26.35
2018-01-21T05:26:39.825Z,26.10
2018-01-21T05:27:13.712Z,25.23
2018-01-21T05:27:47.654Z,23.85
2018-01-21T05:28:21.751Z,24.25
2018-01-21T05:28:55.611Z,25.33
2018-01-21T05:29:29.479Z,26.83
2018-01-21T05:30:03.480Z,25.85
2018-01-21T05:30:37.368Z,28.17
2018-01-21T05:31:11.225Z,24.65
2018-01-21T05:31:45.534Z,26.35
2018-01-21T05:32:19.488Z,27.27
2018-01-21T05:32:53.359Z,25.73
2018-01-21T05:33:27.255Z,26.62
2018-01-21T05:34:01.115Z,26.08
2018-01-21T05:34:34.967Z,24.98
2018-01-21T05:35:08.822Z,26.27
2018-01-21T05:35:42.717Z,25.83
2018-01-21T05:36:16.625Z,26.05
2018-01-21T05:36:50.523Z,25.95
2018-01-21T05:37:24.444Z,27.37
2018-01-21T05:37:58.312Z,26.85
2018-01-21T05:38:32.255Z,26.67
2018-01-21T05:39:06.141Z,26.15
2018-01-21T05:39:40.118Z,25.10
2018-01-21T05:40:14.478Z,27.77
2018-01-21T05:40:48.540Z,24.75
2018-01-21T05:41:22.427Z,24.70
2018-01-21T05:41:56.336Z,26.45
2018-01-21T05:42:30.253Z,27.92
2018-01-21T05:43:04.222Z,27.08
2018-01-21T05:43:38.150Z,24.83
2018-01-21T05:44:12.004Z,25.42
2018-01-21T05:44:45.880Z,25.40
2018-01-21T05:45:19.734Z,26.00
2018-01-21T05:45:53.655Z,26.08
2018-01-21T05:46:27.543Z,24.20
2018-01-21T05:47:01.409Z,22.67
2018-01-21T05:47:35.491Z,24.50
2018-01-21T05:48:09.374Z,25.35
2018-01-21T05:48:43.267Z,26.52
2018-01-21T05:49:17.190Z,25.15
2018-01-21T05:49:51.120Z,24.55
2018-01-21T05:50:25.132Z,25.37
2018-01-21T05:50:59.057Z,25.25
2018-01-21T05:51:33.038Z,26.55
2018-01-21T05:52:07.149Z,26.50
2018-01-21T05:52:41.046Z,25.20
2018-01-21T05:53:15.104Z,25.17
2018-01-21T05:53:49.030Z,26.50
2018-01-21T05:54:22.990Z,23.52
2018-01-21T05:54:56.852Z,24.17
2018-01-21T05:55:30.821Z,26.00
2018-01-21T05:56:04.794Z,26.35
2018-01-21T05:56:38.673Z,26.87
2018-01-21T05:57:12.568Z,24.98
2018-01-21T05:57:46.450Z,26.45
2018-01-21T05:58:20.462Z,24.65
2018-01-21T05:58:54.357Z,25.50
2018-01-21T05:59:28.354Z,25.20
2018-01-21T06:00:02.245Z,26.10
2018-01-21T06:00:36.142Z,25.05
2018-01-21T06:01:10.039Z,24.65
2018-01-21T06:01:43.904Z,24.60
2018-01-21T06:02:17.803Z,25.45
2018-01-21T06:02:51.700Z,25.35
2018-01-21T06:03:25.613Z,27.13
2018-01-21T06:03:59.487Z,24.00
2018-01-21T06:04:33.371Z,25.65
2018-01-21T06:05:07.239Z,26.73
2018-01-21T06:05:41.154Z,25.10
2018-01-21T06:06:15.054Z,24.63
2018-01-21T06:06:48.965Z,24.63
2018-01-21T06:07:22.861Z,24.63
2018-01-21T06:07:56.744Z,26.02
2018-01-21T06:08:30.630Z,25.48
2018-01-21T06:09:04.644Z,25.70
2018-01-21T06:09:38.525Z,25.62
2018-01-21T06:10:12.497Z,25.17
2018-01-21T06:10:46.387Z,24.98
2018-01-21T06:11:20.528Z,26.98
2018-01-21T06:11:54.425Z,26.92
2018-01-21T06:12:28.403Z,25.25
2018-01-21T06:13:02.278Z,26.60
2018-01-21T06:13:36.189Z,24.95
2018-01-21T06:14:10.173Z,24.45
2018-01-21T06:14:44.051Z,26.35
2018-01-21T06:15:17.913Z,27.00
2018-01-21T06:15:51.836Z,25.40
2018-01-21T06:16:25.767Z,26.33
2018-01-21T06:16:59.635Z,24.12
2018-01-21T06:17:33.605Z,24.77
2018-01-21T06:18:07.524Z,26.23
2018-01-21T06:18:41.389Z,25.48
2018-01-21T06:19:15.415Z,27.17
2018-01-21T06:19:49.358Z,26.17
2018-01-21T06:20:23.352Z,26.15
2018-01-21T06:20:57.392Z,26.90
2018-01-21T06:21:31.265Z,25.88
2018-01-21T06:22:05.201Z,26.10
2018-01-21T06:22:39.386Z,25.60
2018-01-21T06:23:13.341Z,26.73
2018-01-21T06:23:47.200Z,27.50
2018-01-21T06:24:21.137Z,28.75
2018-01-21T06:24:55.022Z,25.45
2018-01-21T06:25:28.979Z,26.65
2018-01-21T06:26:02.884Z,26.95
2018-01-21T06:26:36.756Z,25.83
2018-01-21T06:27:10.607Z,24.98
2018-01-21T06:27:44.503Z,25.62
2018-01-21T06:28:18.460Z,25.30
2018-01-21T06:28:52.372Z,26.80
2018-01-21T06:29:26.365Z,28.38
2018-01-21T06:30:00.235Z,26.85
2018-01-21T06:30:34.123Z,28.90
2018-01-21T06:31:08.060Z,24.77
2018-01-21T06:31:41.976Z,27.60
2018-01-21T06:32:15.956Z,27.00
2018-01-21T06:32:49.853Z,28.17
2018-01-21T06:33:23.751Z,27.33
2018-01-21T06:33:57.669Z,27.40
2018-01-21T06:34:31.694Z,26.55
2018-01-21T06:35:05.601Z,28.42
2018-01-21T06:35:39.532Z,26.95
2018-01-21T06:36:13.443Z,27.27
2018-01-21T06:36:47.340Z,28.42
2018-01-21T06:37:21.303Z,27.95
2018-01-21T06:37:55.270Z,28.58
2018-01-21T06:38:29.177Z,28.67
2018-01-21T06:39:03.062Z,29.12
2018-01-21T06:39:36.956Z,29.12
2018-01-21T06:40:11.004Z,27.00
2018-01-21T06:40:44.993Z,29.63
2018-01-21T06:41:18.941Z,28.95
2018-01-21T06:41:52.902Z,29.92
2018-01-21T06:42:26.763Z,30.08
2018-01-21T06:43:00.635Z,28.67
2018-01-21T06:43:34.576Z,31.67
2018-01-21T06:44:08.462Z,33.15
2018-01-21T06:44:42.336Z,29.73
2018-01-21T06:45:16.201Z,30.58
2018-01-21T06:45:50.068Z,29.92
2018-01-21T06:46:23.940Z,32.10
2018-01-21T06:46:57.963Z,29.58
2018-01-21T06:47:31.856Z,31.35
2018-01-21T06:48:05.817Z,30.77
2018-01-21T06:48:39.728Z,30.83
2018-01-21T06:49:13.636Z,31.90
2018-01-21T06:49:47.589Z,31.27
2018-01-21T06:50:21.496Z,30.45
2018-01-21T06:50:55.432Z,33.38
2018-01-21T06:51:29.449Z,31.70
2018-01-21T06:52:03.473Z,31.37
2018-01-21T06:52:37.347Z,30.70
2018-01-21T06:53:11.293Z,30.73
2018-01-21T06:53:45.221Z,30.85
2018-01-21T06:54:19.081Z,30.55
2018-01-21T06:54:53.047Z,33.35
2018-01-21T06:55:27.018Z,31.35
2018-01-21T06:56:00.888Z,30.80
2018-01-21T06:56:34.812Z,31.92
2018-01-21T06:57:08.719Z,31.70
2018-01-21T06:57:42.780Z,31.95
2018-01-21T06:58:17.577Z,32.90
2018-01-21T06:58:51.524Z,32.03
2018-01-21T06:59:25.526Z,33.13
2018-01-21T06:59:59.584Z,32.42
2018-01-21T07:00:33.463Z,32.30
2018-01-21T07:01:07.610Z,30.65
2018-01-21T07:01:41.521Z,32.45
2018-01-21T07:02:15.449Z,32.10
2018-01-21T07:02:49.389Z,33.13
2018-01-21T07:03:23.344Z,32.72
2018-01-21T07:03:57.230Z,33.78
2018-01-21T07:04:31.217Z,33.35
2018-01-21T07:05:05.133Z,32.30
2018-01-21T07:05:39.146Z,32.42
2018-01-21T07:06:13.040Z,34.25
2018-01-21T07:06:48.770Z,33.28
2018-01-21T07:07:22.639Z,34.65
2018-01-21T07:07:56.570Z,33.83
2018-01-21T07:08:30.443Z,32.58
2018-01-21T07:09:04.340Z,33.70
2018-01-21T07:09:38.239Z,34.72
2018-01-21T07:10:12.152Z,33.50
2018-01-21T07:10:46.039Z,32.10
2018-01-21T07:11:19.916Z,35.25
2018-01-21T07:11:53.873Z,35.30
2018-01-21T07:12:27.736Z,33.03
2018-01-21T07:13:01.633Z,31.45
2018-01-21T07:13:35.524Z,33.25
2018-01-21T07:14:09.484Z,35.83
2018-01-21T07:14:43.327Z,32.72
2018-01-21T07:15:17.220Z,33.10
2018-01-21T07:15:51.215Z,33.58
2018-01-21T07:16:25.086Z,35.33
2018-01-21T07:16:58.981Z,33.83